Terminal Aerodrome Forecast
Issued by NWS

Home | Current Version | Previous Version | Text Only | Print | Product List | Glossary On
Versions: 1 2 3 4 5 6 7 8 9 10 11 12 13 14 15 16 17 18 19 20 21 22 23 24 25 26 27 28 29 30 31
000
FTUS42 KCAE 270523
TAFOGB
TAF
KOGB 270523Z 2706/2806 21006KT P6SM VCSH BKN040
     FM270800 VRB03KT 4SM BR OVC007
      TEMPO 2710/2713 2SM BR OVC003
     FM271500 18004KT P6SM OVC025
     FM271800 21005KT P6SM VCTS BKN035 BKN050CB=

USA.gov is the U.S. government's official web portal to all federal, state and local government web resources and services.